Time;durP1;ratioP1;P1;durP2;ratioP2;P2;SDS_P1;SDS_P2;PMS_P1;PMS_P2;Temp;Humidity;BMP_temperature;BMP_pressure;BME280_temperature;BME280_humidity;BME280_pressure;Samples;Min_cycle;Max_cycle;Signal;HPM_P1;HPM_P2
2023/05/12 00:02:06;;;;;;;41.47;18.85;;;11.40;99.90;;;;;;4933273;28;20050;-70
2023/05/12 00:04:32;;;;;;;41.13;19.90;;;11.50;99.90;;;;;;4971940;28;20050;-71
2023/05/12 00:06:57;;;;;;;55.65;23.05;;;11.50;99.90;;;;;;4956101;28;20070;-70
2023/05/12 00:09:23;;;;;;;56.60;25.90;;;11.40;99.90;;;;;;4923956;28;21040;-71
2023/05/12 00:11:49;;;;;;;58.00;24.33;;;11.50;99.90;;;;;;4950679;28;20077;-71
2023/05/12 00:14:15;;;;;;;62.15;27.38;;;11.50;99.90;;;;;;4955909;28;20038;-71
2023/05/12 00:16:41;;;;;;;66.07;27.83;;;11.50;99.90;;;;;;4944091;28;20134;-70
2023/05/12 00:19:07;;;;;;;71.13;30.42;;;11.40;99.90;;;;;;4957556;28;20046;-70
2023/05/12 00:21:33;;;;;;;75.57;31.58;;;11.40;99.90;;;;;;4962463;28;20062;-71
2023/05/12 00:23:58;;;;;;;71.05;31.45;;;11.40;99.90;;;;;;4958542;28;20409;-70
2023/05/12 00:26:24;;;;;;;72.47;32.43;;;11.40;99.90;;;;;;4946399;28;20054;-70
2023/05/12 00:28:51;;;;;;;73.18;32.75;;;11.40;99.90;;;;;;4977949;28;20042;-71
2023/05/12 00:31:17;;;;;;;77.32;33.00;;;11.50;99.90;;;;;;4977636;28;20042;-71
2023/05/12 00:33:42;;;;;;;72.47;32.80;;;11.50;99.90;;;;;;4962437;28;20124;-70
2023/05/12 00:36:08;;;;;;;77.03;33.47;;;11.40;99.90;;;;;;4961672;28;20050;-71
2023/05/12 00:38:36;;;;;;;79.63;33.10;;;11.50;99.90;;;;;;4946619;28;20074;-71
2023/05/12 00:41:02;;;;;;;75.97;34.70;;;11.50;99.90;;;;;;4970932;28;20130;-71
2023/05/12 00:43:28;;;;;;;80.45;35.50;;;11.50;99.90;;;;;;4933071;28;20042;-71
2023/05/12 00:45:54;;;;;;;72.25;34.72;;;11.50;99.90;;;;;;4957513;28;20448;-70
2023/05/12 00:48:20;;;;;;;77.07;36.03;;;11.50;99.90;;;;;;4953918;28;20027;-71
2023/05/12 00:50:45;;;;;;;76.57;35.93;;;11.50;99.90;;;;;;4961695;28;20046;-71
2023/05/12 00:53:12;;;;;;;76.97;35.95;;;11.50;99.90;;;;;;4961263;28;20039;-70
2023/05/12 00:55:38;;;;;;;71.35;34.20;;;11.50;99.90;;;;;;4977918;28;20238;-71
2023/05/12 00:58:04;;;;;;;78.28;35.33;;;11.60;99.90;;;;;;4961285;28;20411;-71
2023/05/12 01:00:29;;;;;;;73.82;34.13;;;11.60;99.90;;;;;;4961992;28;20074;-71
2023/05/12 01:02:58;;;;;;;78.97;35.28;;;11.60;99.90;;;;;;4979863;28;20136;-70
2023/05/12 01:05:30;;;;;;;70.28;32.97;;;11.60;99.90;;;;;;4989586;28;20077;-71
2023/05/12 01:07:58;;;;;;;;;;;11.60;99.90;;;;;;4961609;28;20077;-71
2023/05/12 01:10:24;;;;;;;70.60;33.72;;;11.60;99.90;;;;;;4961477;28;19965;-71
2023/05/12 01:12:50;;;;;;;81.57;34.55;;;11.60;99.90;;;;;;4961550;28;20073;-71
2023/05/12 01:15:17;;;;;;;70.88;34.17;;;11.60;99.90;;;;;;4945554;28;20073;-71
2023/05/12 01:17:53;;;;;;;74.25;35.13;;;11.60;99.90;;;;;;4995694;28;20050;-71
2023/05/12 01:20:22;;;;;;;79.90;36.50;;;11.60;99.90;;;;;;4958373;28;20069;-70
2023/05/12 01:22:48;;;;;;;82.63;38.50;;;11.60;99.90;;;;;;4961132;28;20513;-71
2023/05/12 01:25:15;;;;;;;80.07;36.50;;;11.70;99.90;;;;;;4945627;28;20058;-70
2023/05/12 01:27:42;;;;;;;74.82;35.33;;;11.70;99.90;;;;;;4976791;28;20050;-70
2023/05/12 01:30:09;;;;;;;77.80;36.58;;;11.70;99.90;;;;;;4945554;28;20045;-71
2023/05/12 01:32:37;;;;;;;79.57;38.00;;;11.70;99.90;;;;;;4976865;28;20046;-71
2023/05/12 01:35:03;;;;;;;86.75;37.92;;;11.70;99.90;;;;;;4976666;28;20570;-71
2023/05/12 01:37:28;;;;;;;82.68;38.17;;;11.70;99.90;;;;;;4960634;28;20475;-70
2023/05/12 01:39:54;;;;;;;88.43;39.10;;;11.70;99.90;;;;;;4976569;28;20042;-70
2023/05/12 01:42:20;;;;;;;77.93;36.90;;;11.80;99.90;;;;;;4961200;28;20110;-71
2023/05/12 01:44:46;;;;;;;79.13;36.97;;;11.70;99.90;;;;;;4980849;28;20200;-71
2023/05/12 01:47:13;;;;;;;88.32;39.47;;;11.80;99.90;;;;;;4942079;28;20069;-71
2023/05/12 01:49:39;;;;;;;84.32;38.20;;;11.80;99.90;;;;;;4961804;28;20046;-71
2023/05/12 01:52:05;;;;;;;79.05;38.40;;;11.80;99.90;;;;;;4994576;28;20057;-71
2023/05/12 01:54:32;;;;;;;85.57;38.08;;;11.80;99.90;;;;;;4944828;28;20046;-70
2023/05/12 01:56:57;;;;;;;87.70;38.08;;;11.80;99.90;;;;;;4975817;28;20116;-71
2023/05/12 01:59:23;;;;;;;86.30;38.10;;;11.80;99.90;;;;;;4970822;28;20069;-71
2023/05/12 02:01:49;;;;;;;80.15;37.95;;;11.80;99.90;;;;;;4948341;28;20066;-71
2023/05/12 02:04:14;;;;;;;87.90;39.20;;;11.80;99.90;;;;;;4960516;28;20042;-71
2023/05/12 02:06:40;;;;;;;80.28;39.25;;;11.80;99.90;;;;;;4975690;28;20042;-70
2023/05/12 02:09:06;;;;;;;86.82;37.50;;;11.80;99.90;;;;;;4960493;28;20061;-71
2023/05/12 02:11:31;;;;;;;84.00;38.20;;;11.80;99.90;;;;;;4953813;28;20056;-70
2023/05/12 02:13:57;;;;;;;84.90;39.13;;;11.80;99.90;;;;;;4962748;28;20129;-71
2023/05/12 02:16:23;;;;;;;78.35;37.40;;;11.90;99.90;;;;;;4937413;28;20045;-71
2023/05/12 02:18:49;;;;;;;77.38;37.22;;;11.90;99.90;;;;;;4975576;28;20102;-70
2023/05/12 02:21:14;;;;;;;83.93;39.40;;;11.90;99.90;;;;;;4959841;28;20129;-70
2023/05/12 02:23:40;;;;;;;78.47;37.60;;;11.90;99.90;;;;;;4943826;28;20050;-71
2023/05/12 02:26:06;;;;;;;79.40;37.40;;;11.90;99.90;;;;;;4994086;28;20069;-70
2023/05/12 02:28:32;;;;;;;87.70;38.88;;;11.90;99.90;;;;;;4968896;28;20058;-71
2023/05/12 02:30:58;;;;;;;86.25;38.22;;;11.90;99.90;;;;;;4975827;28;20510;-71
2023/05/12 02:33:24;;;;;;;92.43;39.03;;;11.90;99.90;;;;;;4960616;28;20073;-71
2023/05/12 02:35:49;;;;;;;85.40;37.78;;;11.90;99.90;;;;;;4976993;28;20088;-71
2023/05/12 02:38:15;;;;;;;85.75;38.63;;;11.90;99.90;;;;;;4973014;28;20049;-71
2023/05/12 02:40:41;;;;;;;89.50;38.75;;;11.90;99.90;;;;;;4959610;28;20058;-71
2023/05/12 02:43:07;;;;;;;88.32;39.83;;;11.90;99.90;;;;;;4975964;28;20053;-71
2023/05/12 02:45:33;;;;;;;103.47;43.20;;;11.90;99.90;;;;;;4953245;28;20132;-71
2023/05/12 02:47:59;;;;;;;91.28;40.65;;;11.90;99.90;;;;;;4976059;28;20054;-70
2023/05/12 02:50:25;;;;;;;97.22;42.47;;;11.90;99.90;;;;;;4975747;28;20042;-71
2023/05/12 02:52:51;;;;;;;92.00;41.88;;;11.90;99.90;;;;;;4959574;28;20450;-71
2023/05/12 02:55:16;;;;;;;94.65;42.05;;;11.90;99.90;;;;;;4959692;28;20512;-71
2023/05/12 02:57:43;;;;;;;101.20;42.92;;;11.90;99.90;;;;;;4975661;28;20087;-71
2023/05/12 03:00:09;;;;;;;97.88;42.42;;;11.90;99.90;;;;;;4957049;28;20073;-71
2023/05/12 03:02:37;;;;;;;111.80;46.13;;;11.90;99.90;;;;;;4959662;28;20045;-71
2023/05/12 03:05:03;;;;;;;96.70;44.25;;;11.90;99.90;;;;;;4975873;28;20038;-71
2023/05/12 03:07:29;;;;;;;110.10;45.75;;;11.90;99.90;;;;;;4975657;28;20051;-71
2023/05/12 03:09:55;;;;;;;107.93;44.17;;;11.90;99.90;;;;;;4959317;28;20053;-71
2023/05/12 03:12:20;;;;;;;114.70;44.95;;;11.90;99.90;;;;;;4975981;28;20116;-71
2023/05/12 03:14:46;;;;;;;106.10;44.90;;;11.90;99.90;;;;;;4943087;28;20132;-71
2023/05/12 03:17:12;;;;;;;111.72;44.80;;;11.90;99.90;;;;;;4960021;28;20049;-70
2023/05/12 03:19:38;;;;;;;106.63;44.90;;;11.90;99.90;;;;;;4959239;28;20058;-70
2023/05/12 03:22:06;;;;;;;112.15;46.38;;;11.90;99.90;;;;;;4940013;28;20278;-71
2023/05/12 03:24:32;;;;;;;100.95;44.13;;;11.90;99.90;;;;;;4959931;28;20054;-71
2023/05/12 03:26:58;;;;;;;129.45;48.83;;;11.90;99.90;;;;;;4974924;28;20150;-71
2023/05/12 03:29:24;;;;;;;128.40;48.22;;;11.90;99.90;;;;;;4963437;28;20443;-70
2023/05/12 03:31:49;;;;;;;109.75;46.42;;;11.90;99.90;;;;;;4962953;28;20424;-71
2023/05/12 03:34:15;;;;;;;112.55;45.92;;;11.90;99.90;;;;;;4947925;28;20042;-71
2023/05/12 03:36:42;;;;;;;103.18;45.88;;;11.90;99.90;;;;;;4956985;28;20536;-71
2023/05/12 03:39:08;;;;;;;115.47;47.35;;;11.90;99.90;;;;;;4978903;28;20050;-71
2023/05/12 03:41:34;;;;;;;107.13;44.10;;;11.90;99.90;;;;;;4978930;28;20053;-71
2023/05/12 03:44:00;;;;;;;108.05;46.67;;;11.90;99.90;;;;;;4978511;28;20030;-71
2023/05/12 03:46:26;;;;;;;99.93;44.28;;;11.90;99.90;;;;;;4958820;28;20088;-71
2023/05/12 03:48:52;;;;;;;103.45;44.08;;;11.90;99.90;;;;;;4947107;28;20110;-71
2023/05/12 03:51:18;;;;;;;116.25;46.15;;;12.00;99.90;;;;;;4947079;28;20038;-71
2023/05/12 03:53:46;;;;;;;108.70;44.70;;;12.00;99.90;;;;;;4946664;28;20065;-71
2023/05/12 03:56:12;;;;;;;104.38;43.72;;;12.00;99.90;;;;;;4996280;28;20337;-71
2023/05/12 03:58:37;;;;;;;95.60;44.42;;;12.00;99.90;;;;;;4961758;28;20054;-71
2023/05/12 04:01:04;;;;;;;102.40;45.08;;;12.00;99.90;;;;;;4986158;28;20046;-70
2023/05/12 04:03:30;;;;;;;94.38;41.33;;;12.10;99.90;;;;;;4996517;28;20054;-71
2023/05/12 04:06:00;;;;;;;103.70;43.35;;;12.00;99.90;;;;;;4972039;28;20057;-70
2023/05/12 04:08:27;;;;;;;108.93;44.58;;;12.10;99.90;;;;;;4978862;28;20116;-71
2023/05/12 04:11:00;;;;;;;106.38;45.92;;;12.10;99.90;;;;;;4978020;28;20050;-71
2023/05/12 04:13:27;;;;;;;94.60;43.83;;;12.10;99.90;;;;;;4989119;28;20108;-71
2023/05/12 04:15:59;;;;;;;104.07;45.00;;;12.10;99.90;;;;;;4945538;28;20050;-71
2023/05/12 04:18:26;;;;;;;101.65;44.60;;;12.10;99.90;;;;;;4977791;28;20100;-71
2023/05/12 04:20:53;;;;;;;117.90;46.47;;;12.10;99.90;;;;;;4963060;28;20076;-71
2023/05/12 04:23:19;;;;;;;107.40;44.40;;;12.10;99.90;;;;;;4974463;28;20380;-71
2023/05/12 04:25:45;;;;;;;106.25;45.13;;;12.10;99.90;;;;;;4962597;28;20612;-71
2023/05/12 04:28:11;;;;;;;108.93;45.33;;;12.10;99.90;;;;;;4967865;28;20045;-71
2023/05/12 04:30:40;;;;;;;107.63;46.63;;;12.10;99.90;;;;;;4970891;28;20073;-71
2023/05/12 04:33:07;;;;;;;101.82;42.28;;;12.10;99.90;;;;;;4945846;28;20371;-71
2023/05/12 04:35:33;;;;;;;99.65;43.08;;;12.10;99.90;;;;;;4977971;28;20046;-71
2023/05/12 04:38:02;;;;;;;116.70;46.45;;;12.20;99.90;;;;;;4961898;28;20057;-71
2023/05/12 04:40:28;;;;;;;102.22;44.03;;;12.20;99.90;;;;;;4976616;28;20465;-71
2023/05/12 04:42:53;;;;;;;122.78;48.28;;;12.20;99.90;;;;;;4995900;28;20057;-71
2023/05/12 04:45:19;;;;;;;107.82;45.60;;;12.20;99.90;;;;;;4961732;28;20046;-70
2023/05/12 04:47:45;;;;;;;102.30;44.92;;;12.20;99.90;;;;;;4946280;28;20046;-70
2023/05/12 04:50:11;;;;;;;118.28;46.35;;;12.20;99.90;;;;;;4977155;28;20073;-69
2023/05/12 04:52:37;;;;;;;130.50;47.40;;;12.20;99.90;;;;;;4977325;28;20082;-69
2023/05/12 04:55:04;;;;;;;104.10;43.58;;;12.20;99.90;;;;;;4978224;28;20085;-69
2023/05/12 04:57:30;;;;;;;95.05;43.67;;;12.30;99.90;;;;;;4977423;28;20084;-68
2023/05/12 04:59:58;;;;;;;95.60;45.35;;;12.30;99.90;;;;;;4977490;28;20137;-70
2023/05/12 05:02:24;;;;;;;104.00;46.13;;;12.20;99.90;;;;;;4961401;28;20042;-70
2023/05/12 05:04:49;;;;;;;109.72;47.38;;;12.30;99.90;;;;;;4977806;28;20064;-70
2023/05/12 05:07:15;;;;;;;99.03;43.65;;;12.30;99.90;;;;;;4945041;28;20609;-70
2023/05/12 05:09:41;;;;;;;110.30;46.67;;;12.30;99.90;;;;;;4975900;28;20053;-69
2023/05/12 05:12:07;;;;;;;100.00;44.35;;;12.30;99.90;;;;;;4962862;28;20046;-69
2023/05/12 05:14:33;;;;;;;105.63;47.15;;;12.30;99.90;;;;;;4979429;28;20054;-70
2023/05/12 05:16:59;;;;;;;106.28;46.97;;;12.30;99.90;;;;;;4960344;28;20152;-71
2023/05/12 05:19:25;;;;;;;99.53;43.80;;;12.40;99.90;;;;;;4960449;28;20054;-71
2023/05/12 05:21:51;;;;;;;99.97;45.58;;;12.40;99.90;;;;;;4975758;28;20080;-71
2023/05/12 05:24:17;;;;;;;100.43;45.78;;;12.40;99.90;;;;;;4975658;28;20077;-71
2023/05/12 05:26:42;;;;;;;97.95;44.50;;;12.40;99.90;;;;;;4943869;28;20072;-71
2023/05/12 05:29:08;;;;;;;97.45;45.38;;;12.40;99.90;;;;;;4963143;28;20038;-71
2023/05/12 05:31:34;;;;;;;105.22;45.50;;;12.50;99.90;;;;;;4980388;28;20057;-71
2023/05/12 05:33:59;;;;;;;105.07;46.70;;;12.40;99.90;;;;;;4977098;28;20042;-71
2023/05/12 05:36:25;;;;;;;104.68;46.15;;;12.50;99.90;;;;;;4976815;28;20140;-71
2023/05/12 05:38:51;;;;;;;105.85;46.50;;;12.50;99.90;;;;;;4940632;28;20050;-71
2023/05/12 05:41:17;;;;;;;101.35;45.40;;;12.50;99.90;;;;;;4976818;28;20116;-71
2023/05/12 05:43:43;;;;;;;102.28;47.17;;;12.50;99.90;;;;;;4956681;28;20119;-71
2023/05/12 05:46:08;;;;;;;109.05;44.63;;;12.50;99.90;;;;;;4961018;28;20035;-71
2023/05/12 05:48:35;;;;;;;95.82;44.28;;;12.50;99.90;;;;;;4959947;28;20081;-72
2023/05/12 05:51:01;;;;;;;103.63;45.00;;;12.50;99.90;;;;;;4977226;28;20058;-71
2023/05/12 05:53:27;;;;;;;100.50;47.03;;;12.50;99.90;;;;;;4952900;28;20057;-71
2023/05/12 05:55:53;;;;;;;116.25;46.45;;;12.50;99.90;;;;;;4994603;28;20054;-72
2023/05/12 05:58:18;;;;;;;114.00;47.38;;;12.50;99.90;;;;;;4960031;28;20050;-71
2023/05/12 06:00:45;;;;;;;118.07;48.47;;;12.50;99.90;;;;;;4944605;28;20078;-73
2023/05/12 06:03:10;;;;;;;112.68;47.20;;;12.50;99.90;;;;;;4944829;28;20511;-78
2023/05/12 06:05:36;;;;;;;135.38;51.03;;;12.50;99.90;;;;;;4943873;28;20121;-71
2023/05/12 06:08:04;;;;;;;114.72;48.88;;;12.50;99.90;;;;;;4996825;28;20046;-71
2023/05/12 06:10:29;;;;;;;113.63;48.67;;;12.50;99.90;;;;;;4975661;28;20050;-71
2023/05/12 06:12:55;;;;;;;123.38;48.83;;;12.50;99.90;;;;;;4944109;28;20479;-71
2023/05/12 06:15:21;;;;;;;98.45;45.13;;;12.50;99.90;;;;;;4997363;28;20085;-71
2023/05/12 06:17:47;;;;;;;118.03;47.90;;;12.50;99.90;;;;;;5001893;28;20520;-71
2023/05/12 06:20:13;;;;;;;108.65;47.92;;;12.50;99.90;;;;;;4932426;28;20059;-71
2023/05/12 06:22:41;;;;;;;117.53;47.88;;;12.50;99.90;;;;;;4993255;28;20047;-71
2023/05/12 06:25:07;;;;;;;102.22;43.80;;;12.50;99.90;;;;;;4977021;28;20046;-71
2023/05/12 06:27:33;;;;;;;116.72;47.72;;;12.50;99.90;;;;;;4993050;28;20046;-71
2023/05/12 06:29:58;;;;;;;111.55;46.22;;;12.50;99.90;;;;;;4944593;28;20042;-71
2023/05/12 06:32:25;;;;;;;110.28;47.15;;;12.40;99.90;;;;;;4974455;28;20077;-71
2023/05/12 06:34:51;;;;;;;116.72;45.90;;;12.40;99.90;;;;;;4939505;28;20073;-71
2023/05/12 06:37:16;;;;;;;126.72;48.70;;;12.40;99.90;;;;;;4951793;28;20089;-71
2023/05/12 06:39:42;;;;;;;122.95;47.35;;;12.40;99.90;;;;;;4933973;28;20057;-72
2023/05/12 06:42:08;;;;;;;99.95;44.20;;;12.40;99.90;;;;;;4931341;28;20049;-71
2023/05/12 06:44:33;;;;;;;107.40;46.17;;;12.30;99.90;;;;;;4962024;28;20030;-71
2023/05/12 06:46:59;;;;;;;104.25;44.30;;;12.30;99.90;;;;;;4946772;28;20042;-71
2023/05/12 06:49:25;;;;;;;102.43;43.78;;;12.30;99.90;;;;;;4929906;28;20042;-71
2023/05/12 06:51:50;;;;;;;91.47;42.90;;;12.30;99.90;;;;;;4947039;28;20038;-71
2023/05/12 06:54:16;;;;;;;86.20;39.33;;;12.30;99.90;;;;;;4961556;28;20168;-71
2023/05/12 06:56:42;;;;;;;82.70;40.30;;;12.40;99.90;;;;;;4946742;28;20323;-70
2023/05/12 06:59:07;;;;;;;99.57;41.78;;;12.30;99.90;;;;;;4962133;28;20386;-70
2023/05/12 07:01:33;;;;;;;100.70;44.15;;;12.30;99.90;;;;;;4930264;28;20327;-71
2023/05/12 07:03:59;;;;;;;94.97;43.10;;;12.30;99.90;;;;;;4950108;28;20050;-71
2023/05/12 07:06:28;;;;;;;88.25;41.28;;;12.30;99.90;;;;;;4934244;28;20388;-71
2023/05/12 07:08:54;;;;;;;91.22;40.13;;;12.40;99.90;;;;;;4984329;28;20472;-71
2023/05/12 07:11:21;;;;;;;98.03;42.55;;;12.40;99.90;;;;;;4965985;28;20038;-71
2023/05/12 07:13:47;;;;;;;83.60;41.20;;;12.40;99.90;;;;;;4926694;28;20054;-71
2023/05/12 07:16:14;;;;;;;103.80;44.53;;;12.40;99.90;;;;;;4950702;28;20054;-71
2023/05/12 07:18:40;;;;;;;81.05;40.03;;;12.50;99.90;;;;;;4965928;28;20256;-71
2023/05/12 07:21:05;;;;;;;82.22;39.63;;;12.50;99.90;;;;;;4965833;28;20066;-71
2023/05/12 07:23:33;;;;;;;78.60;40.75;;;12.60;99.90;;;;;;4948939;28;20065;-71
2023/05/12 07:25:59;;;;;;;78.40;40.75;;;12.60;99.90;;;;;;4933738;28;20046;-71
2023/05/12 07:28:25;;;;;;;78.70;40.47;;;12.60;99.90;;;;;;4984947;28;20050;-71
2023/05/12 07:30:50;;;;;;;75.20;39.60;;;12.70;99.90;;;;;;4966761;28;20052;-71
2023/05/12 07:33:16;;;;;;;69.07;38.47;;;12.80;99.90;;;;;;4951218;28;20042;-71
2023/05/12 07:35:42;;;;;;;68.25;38.88;;;12.80;99.90;;;;;;4966153;28;20046;-71
2023/05/12 07:38:08;;;;;;;69.63;37.50;;;12.90;99.90;;;;;;4950985;28;20508;-71
2023/05/12 07:40:34;;;;;;;64.97;37.63;;;13.00;99.90;;;;;;4950480;28;20188;-71
2023/05/12 07:43:01;;;;;;;69.35;38.15;;;13.20;99.90;;;;;;4950124;28;20133;-71
2023/05/12 07:45:27;;;;;;;62.50;36.53;;;13.30;99.90;;;;;;4934454;28;20050;-72
2023/05/12 07:47:53;;;;;;;59.63;35.63;;;13.40;99.90;;;;;;4966955;28;20140;-72
2023/05/12 07:50:19;;;;;;;58.78;35.30;;;13.40;99.90;;;;;;4950756;28;20101;-71
2023/05/12 07:52:52;;;;;;;58.47;34.40;;;13.50;99.90;;;;;;4965043;28;20050;-71
2023/05/12 07:55:19;;;;;;;58.85;35.90;;;13.50;99.90;;;;;;4966796;28;20081;-71
2023/05/12 07:57:45;;;;;;;57.40;35.05;;;13.60;99.90;;;;;;4966257;28;20077;-71
2023/05/12 08:00:12;;;;;;;51.85;34.13;;;13.60;99.90;;;;;;4966409;28;20046;-72
2023/05/12 08:02:38;;;;;;;52.78;34.55;;;13.70;99.90;;;;;;4949513;28;20401;-71
2023/05/12 08:05:05;;;;;;;52.90;33.38;;;13.80;99.90;;;;;;4966010;28;20054;-71
2023/05/12 08:07:31;;;;;;;45.55;30.33;;;13.90;99.90;;;;;;4983691;28;20050;-72
2023/05/12 08:09:56;;;;;;;53.22;32.60;;;13.90;99.90;;;;;;4983353;28;20100;-71
2023/05/12 08:12:22;;;;;;;48.15;32.25;;;14.00;99.90;;;;;;4933883;28;20417;-71
2023/05/12 08:14:48;;;;;;;46.90;32.25;;;14.10;99.90;;;;;;4965289;28;20042;-71
2023/05/12 08:17:14;;;;;;;46.35;32.38;;;14.20;99.90;;;;;;4950007;28;20069;-72
2023/05/12 08:19:39;;;;;;;45.85;32.50;;;14.30;99.90;;;;;;4948624;28;20066;-71
2023/05/12 08:22:05;;;;;;;43.65;30.90;;;14.40;99.90;;;;;;4965072;28;20096;-71
2023/05/12 08:24:31;;;;;;;47.97;32.72;;;14.50;99.90;;;;;;4964132;28;20069;-72
2023/05/12 08:26:56;;;;;;;45.75;33.30;;;14.50;99.90;;;;;;4980899;28;20038;-72
2023/05/12 08:29:22;;;;;;;46.42;31.25;;;14.70;99.90;;;;;;4965836;28;20097;-72
2023/05/12 08:31:48;;;;;;;45.78;30.65;;;14.70;99.90;;;;;;4932308;28;20092;-72
2023/05/12 08:34:14;;;;;;;47.17;31.65;;;14.70;99.90;;;;;;4968559;28;20070;-72
2023/05/12 08:36:40;;;;;;;46.20;31.70;;;14.80;99.90;;;;;;4952036;28;20046;-72
2023/05/12 08:39:08;;;;;;;42.25;31.02;;;14.80;99.90;;;;;;4935915;28;20152;-71
2023/05/12 08:41:45;;;;;;;46.88;33.08;;;14.90;99.90;;;;;;4937009;28;20038;-72
2023/05/12 08:44:12;;;;;;;46.17;33.75;;;15.00;99.90;;;;;;4951709;28;20097;-72
2023/05/12 08:46:37;;;;;;;43.78;31.65;;;15.10;99.90;;;;;;4985795;28;20553;-72
2023/05/12 08:49:04;;;;;;;43.25;31.52;;;15.10;99.90;;;;;;4950385;28;20051;-72
2023/05/12 08:51:36;;;;;;;40.95;30.70;;;15.20;99.90;;;;;;4968217;28;21228;-72
2023/05/12 08:54:03;;;;;;;41.88;31.42;;;15.40;99.90;;;;;;4951445;28;20038;-72
2023/05/12 08:56:30;;;;;;;42.15;30.77;;;15.40;99.90;;;;;;4951520;28;20113;-72
2023/05/12 08:58:56;;;;;;;38.45;29.45;;;15.50;99.90;;;;;;4951455;28;20061;-72
2023/05/12 09:01:23;;;;;;;43.80;32.17;;;15.60;99.90;;;;;;4967297;28;20031;-72
2023/05/12 09:03:51;;;;;;;38.03;29.90;;;15.80;99.90;;;;;;4966330;28;20361;-73
2023/05/12 09:06:17;;;;;;;39.80;30.25;;;15.90;99.90;;;;;;4950944;28;20089;-72
2023/05/12 09:08:44;;;;;;;40.13;29.40;;;15.90;99.90;;;;;;4968868;28;20038;-72
2023/05/12 09:11:11;;;;;;;36.80;28.55;;;15.90;99.90;;;;;;4967153;28;20049;-71
2023/05/12 09:13:45;;;;;;;37.50;28.27;;;16.00;99.90;;;;;;4951441;28;20057;-72
2023/05/12 09:16:12;;;;;;;38.47;29.67;;;16.10;99.90;;;;;;4967020;28;20058;-72
2023/05/12 09:18:52;;;;;;;37.10;29.88;;;16.20;99.90;;;;;;4967957;28;20054;-72
2023/05/12 09:21:18;;;;;;;38.20;29.30;;;16.30;99.90;;;;;;4966931;28;20062;-72
2023/05/12 09:24:14;;;;;;;38.28;28.80;;;16.40;99.90;;;;;;4934815;28;20135;-72
2023/05/12 09:26:52;;;;;;;42.33;30.65;;;16.50;99.90;;;;;;4953667;28;20072;-72
2023/05/12 09:29:18;;;;;;;34.97;28.42;;;16.60;99.90;;;;;;4951556;28;20073;-72
2023/05/12 09:31:52;;;;;;;34.85;28.15;;;16.80;99.90;;;;;;4966684;28;20096;-72
2023/05/12 09:34:19;;;;;;;33.55;28.08;;;16.80;99.90;;;;;;4933138;28;20042;-72
2023/05/12 09:36:55;;;;;;;32.08;27.20;;;16.90;99.90;;;;;;4983113;28;20050;-72
2023/05/12 09:39:21;;;;;;;33.03;27.90;;;17.10;99.90;;;;;;4984447;28;20505;-72
2023/05/12 09:41:47;;;;;;;33.83;27.77;;;17.30;99.90;;;;;;4982783;28;20054;-72
2023/05/12 09:44:15;;;;;;;32.97;26.85;;;17.40;99.90;;;;;;4982803;28;20042;-72
2023/05/12 09:46:41;;;;;;;36.95;29.27;;;17.40;99.90;;;;;;4982705;28;20522;-72
2023/05/12 09:49:07;;;;;;;35.08;28.95;;;17.50;99.90;;;;;;4950065;28;20066;-72
2023/05/12 09:51:33;;;;;;;44.55;29.80;;;17.70;99.90;;;;;;4966538;28;20417;-72
2023/05/12 09:53:59;;;;;;;35.30;28.52;;;18.10;99.90;;;;;;4964138;28;20050;-73
2023/05/12 09:56:31;;;;;;;31.70;28.00;;;18.30;99.90;;;;;;4949570;28;20469;-73
2023/05/12 09:58:57;;;;;;;30.58;26.63;;;18.50;99.90;;;;;;4964463;28;20046;-72
2023/05/12 10:01:24;;;;;;;29.05;25.83;;;18.70;99.90;;;;;;4966175;28;20039;-73
2023/05/12 10:03:53;;;;;;;27.00;24.17;;;18.70;99.90;;;;;;4950190;28;20046;-73
2023/05/12 10:06:27;;;;;;;26.60;23.80;;;18.80;99.90;;;;;;4965756;28;20050;-72
2023/05/12 10:09:02;;;;;;;28.27;24.67;;;18.90;99.90;;;;;;4959373;28;20078;-73
2023/05/12 10:11:28;;;;;;;26.88;23.77;;;19.00;99.90;;;;;;4982313;28;20358;-72
2023/05/12 10:13:55;;;;;;;25.98;23.20;;;19.10;99.90;;;;;;4931183;28;20042;-73
2023/05/12 10:16:21;;;;;;;28.77;25.13;;;19.30;99.90;;;;;;4968169;28;20053;-73
2023/05/12 10:18:48;;;;;;;31.23;26.92;;;19.40;99.90;;;;;;4975505;28;20046;-72
2023/05/12 10:21:15;;;;;;;32.03;27.45;;;19.50;99.90;;;;;;4950494;28;20221;-72
2023/05/12 10:23:43;;;;;;;30.02;26.77;;;19.50;99.90;;;;;;4943922;28;20082;-71
2023/05/12 10:26:10;;;;;;;29.88;26.13;;;19.60;99.90;;;;;;4973815;28;20031;-72
2023/05/12 10:28:36;;;;;;;27.02;24.23;;;19.70;99.90;;;;;;4943310;28;20034;-72
2023/05/12 10:31:05;;;;;;;26.38;23.63;;;19.80;99.90;;;;;;4970033;28;20047;-72
2023/05/12 10:33:31;;;;;;;29.33;26.33;;;19.90;99.90;;;;;;4932353;29;20106;-72
2023/05/12 10:35:56;;;;;;;30.52;27.33;;;19.80;99.90;;;;;;4973397;28;20065;-72
2023/05/12 10:38:22;;;;;;;26.60;23.80;;;19.80;99.90;;;;;;4967342;28;20406;-71
2023/05/12 10:41:00;;;;;;;25.92;23.25;;;20.00;99.90;;;;;;4950949;28;20046;-71
2023/05/12 10:43:47;;;;;;;24.75;22.25;;;20.20;99.90;;;;;;4959769;28;20053;-72
2023/05/12 10:46:19;;;;;;;24.13;21.67;;;20.50;99.90;;;;;;4967417;28;20050;-72
2023/05/12 10:48:53;;;;;;;25.92;23.20;;;20.60;99.90;;;;;;4949225;28;20059;-72
2023/05/12 10:51:21;;;;;;;23.17;20.90;;;20.90;99.90;;;;;;4982629;28;20059;-72
2023/05/12 10:53:51;;;;;;;23.77;20.23;;;20.90;99.90;;;;;;4951005;28;20663;-72
2023/05/12 10:56:28;;;;;;;24.88;22.25;;;21.10;99.90;;;;;;4983593;28;20406;-72
2023/05/12 10:59:17;;;;;;;25.10;22.50;;;21.20;99.90;;;;;;4967939;28;20505;-72
2023/05/12 11:02:13;;;;;;;28.17;25.38;;;21.20;99.90;;;;;;4960688;28;20078;-72
2023/05/12 11:04:42;;;;;;;21.70;19.52;;;21.10;99.90;;;;;;4972500;28;20042;-71
2023/05/12 11:07:09;;;;;;;24.60;22.00;;;21.10;99.90;;;;;;4963180;28;20067;-72
2023/05/12 11:09:37;;;;;;;23.50;21.02;;;21.10;99.90;;;;;;4967816;28;20065;-72
2023/05/12 11:12:05;;;;;;;22.35;20.05;;;21.10;99.90;;;;;;4965257;28;20514;-72
2023/05/12 11:14:31;;;;;;;23.02;20.23;;;21.30;99.90;;;;;;4985215;28;20078;-72
2023/05/12 11:16:57;;;;;;;21.13;18.92;;;21.30;99.90;;;;;;4978440;28;20122;-72
2023/05/12 11:19:22;;;;;;;23.70;21.20;;;21.20;99.90;;;;;;4963788;28;20082;-71
2023/05/12 11:21:48;;;;;;;23.88;21.30;;;21.20;99.90;;;;;;5002913;28;20084;-72
2023/05/12 11:24:15;;;;;;;20.38;18.20;;;21.30;99.90;;;;;;5002039;28;20095;-72
2023/05/12 11:26:41;;;;;;;18.30;16.00;;;21.40;99.90;;;;;;4998765;28;20058;-72
2023/05/12 11:29:07;;;;;;;15.50;13.55;;;21.50;99.90;;;;;;4982649;28;20034;-72
2023/05/12 11:31:33;;;;;;;13.82;12.32;;;21.60;99.90;;;;;;5004733;28;20039;-71
2023/05/12 11:34:03;;;;;;;15.23;13.05;;;21.60;99.90;;;;;;4989520;28;20046;-72
2023/05/12 11:36:39;;;;;;;16.97;15.33;;;21.80;99.90;;;;;;4985277;28;20096;-72
2023/05/12 11:39:05;;;;;;;14.45;13.05;;;21.70;99.90;;;;;;5002864;28;20328;-71
2023/05/12 11:41:32;;;;;;;15.70;14.10;;;21.50;99.90;;;;;;4994058;28;20039;-72
2023/05/12 11:43:57;;;;;;;15.00;12.73;;;21.40;99.90;;;;;;4983354;28;20296;-72
2023/05/12 11:46:24;;;;;;;14.73;13.25;;;21.50;99.90;;;;;;4987281;28;20075;-72
2023/05/12 11:48:55;;;;;;;14.13;12.73;;;21.70;99.90;;;;;;5006713;28;20050;-72
2023/05/12 11:51:21;;;;;;;13.30;11.68;;;21.80;99.90;;;;;;4974001;28;20531;-71
2023/05/12 11:53:47;;;;;;;14.20;12.90;;;22.00;99.90;;;;;;4971950;28;20068;-71
2023/05/12 11:56:21;;;;;;;14.85;13.35;;;22.00;99.90;;;;;;4998373;28;20050;-71
2023/05/12 11:58:57;;;;;;;12.30;11.00;;;22.10;99.90;;;;;;5005842;28;20054;-71
2023/05/12 12:01:23;;;;;;;9.32;8.43;;;22.20;99.90;;;;;;4991370;28;20057;-72
2023/05/12 12:03:51;;;;;;;8.15;6.28;;;22.40;99.90;;;;;;4992134;28;20524;-72
2023/05/12 12:06:19;;;;;;;8.40;7.60;;;22.50;99.90;;;;;;4989905;28;20049;-71
2023/05/12 12:08:51;;;;;;;8.88;7.68;;;22.40;99.90;;;;;;4987857;28;20050;-71
2023/05/12 12:11:21;;;;;;;7.20;6.40;;;22.40;99.90;;;;;;5012326;28;20041;-72
2023/05/12 12:13:55;;;;;;;7.75;6.65;;;22.50;99.90;;;;;;4965818;28;20125;-72
2023/05/12 12:16:25;;;;;;;8.23;6.60;;;22.60;99.90;;;;;;4992398;28;20105;-72
2023/05/12 12:18:51;;;;;;;8.43;7.50;;;22.80;99.90;;;;;;4982918;28;20053;-71
2023/05/12 12:21:17;;;;;;;7.70;7.05;;;22.80;99.90;;;;;;4968309;28;20119;-72
2023/05/12 12:23:43;;;;;;;8.15;7.15;;;22.80;99.90;;;;;;4991043;28;20058;-72
2023/05/12 12:26:08;;;;;;;6.05;5.55;;;22.70;99.90;;;;;;4954754;28;20086;-71